Time;durP1;ratioP1;P1;durP2;ratioP2;P2;SDS_P1;SDS_P2;PMS_P1;PMS_P2;Temp;Humidity;BMP_temperature;BMP_pressure;BME280_temperature;BME280_humidity;BME280_pressure;Samples;Min_cycle;Max_cycle;Signal;HPM_P1;HPM_P2
2023/09/02 00:01:03;;;;;;;16.45;10.27;;;;;;;;;;10167199;29;20538;-91
2023/09/02 00:06:04;;;;;;;17.52;10.75;;;;;;;;;;10184030;29;20043;-89
2023/09/02 00:11:05;;;;;;;16.13;10.50;;;;;;;;;;10169597;29;20043;-90
2023/09/02 00:16:08;;;;;;;15.27;10.27;;;;;;;;;;10180533;29;20039;-90
2023/09/02 00:21:11;;;;;;;17.75;11.45;;;;;;;;;;10166257;29;20605;-89
2023/09/02 00:26:12;;;;;;;19.63;12.10;;;;;;;;;;10167259;29;20036;-89
2023/09/02 00:31:13;;;;;;;19.35;12.95;;;;;;;;;;10184772;29;20042;-89
2023/09/02 00:36:14;;;;;;;19.33;12.85;;;;;;;;;;10172943;29;20484;-90
2023/09/02 00:41:22;;;;;;;22.00;14.18;;;;;;;;;;10173669;29;20040;-89
2023/09/02 00:46:24;;;;;;;24.02;14.73;;;;;;;;;;10186730;29;20028;-88
2023/09/02 00:51:27;;;;;;;27.50;15.27;;;;;;;;;;10163216;29;20086;-89
2023/09/02 00:56:28;;;;;;;26.75;16.40;;;;;;;;;;10180839;29;20056;-88
2023/09/02 01:01:29;;;;;;;30.60;18.27;;;;;;;;;;10172865;29;20063;-89
2023/09/02 01:06:31;;;;;;;27.58;16.80;;;;;;;;;;10150585;29;20496;-89
2023/09/02 01:11:35;;;;;;;25.00;15.35;;;;;;;;;;10202859;29;20038;-89
2023/09/02 01:16:36;;;;;;;33.75;19.42;;;;;;;;;;10201736;29;20036;-89
2023/09/02 01:21:43;;;;;;;24.90;15.93;;;;;;;;;;10170883;29;20044;-89
2023/09/02 01:26:50;;;;;;;32.40;19.35;;;;;;;;;;10158285;29;20036;-90
2023/09/02 01:31:53;;;;;;;28.20;18.48;;;;;;;;;;10185644;29;20039;-89
2023/09/02 01:36:54;;;;;;;30.90;19.20;;;;;;;;;;10171568;29;20047;-90
2023/09/02 01:41:55;;;;;;;27.20;17.00;;;;;;;;;;10172277;29;20104;-89
2023/09/02 01:46:56;;;;;;;23.70;16.77;;;;;;;;;;10173669;29;20028;-90
2023/09/02 01:51:57;;;;;;;24.42;16.45;;;;;;;;;;10171687;29;20039;-90
2023/09/02 01:56:58;;;;;;;23.02;15.82;;;;;;;;;;10174028;29;20616;-88
2023/09/02 02:02:02;;;;;;;25.00;16.23;;;;;;;;;;10189225;29;20043;-91
2023/09/02 02:07:05;;;;;;;30.08;17.33;;;;;;;;;;10166384;29;20042;-89
2023/09/02 02:12:07;;;;;;;27.90;16.30;;;;;;;;;;10182581;29;20043;-90
2023/09/02 02:17:08;;;;;;;26.20;17.38;;;;;;;;;;10173453;29;20050;-90
2023/09/02 02:22:09;;;;;;;29.30;17.30;;;;;;;;;;10177278;29;20044;-89
2023/09/02 02:27:10;;;;;;;30.42;18.60;;;;;;;;;;10164908;29;20444;-91
2023/09/02 02:32:11;;;;;;;30.92;18.58;;;;;;;;;;10157828;29;20031;-89
2023/09/02 02:37:12;;;;;;;29.55;19.10;;;;;;;;;;10146428;29;20078;-89
2023/09/02 02:42:14;;;;;;;26.98;18.13;;;;;;;;;;10157987;29;20043;-89
2023/09/02 02:47:15;;;;;;;32.28;18.88;;;;;;;;;;10167677;29;20032;-90
2023/09/02 02:52:16;;;;;;;25.58;17.58;;;;;;;;;;10168381;29;20392;-90
2023/09/02 02:57:17;;;;;;;23.70;16.10;;;;;;;;;;10183167;29;20048;-89
2023/09/02 03:02:18;;;;;;;27.35;17.23;;;;;;;;;;10228311;29;20505;-90
2023/09/02 03:07:19;;;;;;;36.83;21.30;;;;;;;;;;10216215;29;20106;-90
2023/09/02 03:12:21;;;;;;;37.47;21.73;;;;;;;;;;10220943;29;20074;-90
2023/09/02 03:17:22;;;;;;;44.88;25.25;;;;;;;;;;10223181;29;20479;-91
2023/09/02 03:22:23;;;;;;;52.53;26.02;;;;;;;;;;10217094;29;20236;-90
2023/09/02 03:27:24;;;;;;;41.67;25.35;;;;;;;;;;10231747;29;20047;-90
2023/09/02 03:32:26;;;;;;;60.70;28.20;;;;;;;;;;10234405;29;20035;-89
2023/09/02 03:37:28;;;;;;;43.80;22.20;;;;;;;;;;10211059;29;20609;-90
2023/09/02 03:42:29;;;;;;;56.92;23.55;;;;;;;;;;10210466;29;20044;-90
2023/09/02 03:47:33;;;;;;;45.50;22.35;;;;;;;;;;10212635;29;20066;-88
2023/09/02 03:52:34;;;;;;;50.97;23.63;;;;;;;;;;10231363;28;20126;-90
2023/09/02 03:57:35;;;;;;;77.65;28.17;;;;;;;;;;10229717;29;20134;-91
2023/09/02 04:02:37;;;;;;;45.63;21.60;;;;;;;;;;10227099;29;20543;-87
2023/09/02 04:07:38;;;;;;;58.83;24.38;;;;;;;;;;10240931;29;20039;-90
2023/09/02 04:12:39;;;;;;;65.55;25.80;;;;;;;;;;10236043;29;20411;-88
2023/09/02 04:17:40;;;;;;;54.38;23.63;;;;;;;;;;10232857;28;20078;-88
2023/09/02 04:22:41;;;;;;;55.53;22.55;;;;;;;;;;10246404;28;20130;-90
2023/09/02 04:27:42;;;;;;;56.83;23.35;;;;;;;;;;10256991;28;20118;-89
2023/09/02 04:32:43;;;;;;;48.33;21.02;;;;;;;;;;10254554;28;20049;-90
2023/09/02 04:37:44;;;;;;;59.20;25.13;;;;;;;;;;10234619;28;20035;-89
2023/09/02 04:42:45;;;;;;;65.70;26.48;;;;;;;;;;10235201;29;20031;-90
2023/09/02 04:47:46;;;;;;;56.58;24.77;;;;;;;;;;10212579;29;20047;-92
2023/09/02 04:52:48;;;;;;;37.35;20.45;;;;;;;;;;10231621;29;20046;-90
2023/09/02 04:57:50;;;;;;;46.47;21.90;;;;;;;;;;10235217;29;20059;-89
2023/09/02 05:02:51;;;;;;;67.22;25.80;;;;;;;;;;10235163;29;20364;-89
2023/09/02 05:07:52;;;;;;;49.58;22.20;;;;;;;;;;10214253;29;20035;-90
2023/09/02 05:12:53;;;;;;;43.05;21.05;;;;;;;;;;10224986;29;20038;-90
2023/09/02 05:17:58;;;;;;;30.40;17.98;;;;;;;;;;10240860;29;20128;-91
2023/09/02 05:22:59;;;;;;;28.20;16.48;;;;;;;;;;10222600;29;20044;-91
2023/09/02 05:28:01;;;;;;;24.50;14.70;;;;;;;;;;10228944;29;20047;-91
2023/09/02 05:33:02;;;;;;;40.40;19.02;;;;;;;;;;10225263;29;20046;-90
2023/09/02 05:38:04;;;;;;;7.25;5.55;;;;;;;;;;10228199;29;20043;-89
2023/09/02 05:43:05;;;;;;;14.27;7.53;;;;;;;;;;10228768;29;20038;-91
2023/09/02 05:48:07;;;;;;;12.55;7.22;;;;;;;;;;10224954;29;20062;-92
2023/09/02 05:53:08;;;;;;;11.52;7.70;;;;;;;;;;10214635;29;20105;-90
2023/09/02 05:58:10;;;;;;;10.00;5.75;;;;;;;;;;10236321;29;20411;-90
2023/09/02 06:03:14;;;;;;;15.25;7.43;;;;;;;;;;10234965;29;20027;-90
2023/09/02 06:08:17;;;;;;;11.50;7.10;;;;;;;;;;10236241;29;20802;-90
2023/09/02 06:13:18;;;;;;;10.80;7.07;;;;;;;;;;10229439;28;20042;-89
2023/09/02 06:18:19;;;;;;;5.68;4.80;;;;;;;;;;10227421;29;20046;-89
2023/09/02 06:23:21;;;;;;;9.82;5.82;;;;;;;;;;10207008;29;20038;-87
2023/09/02 06:28:22;;;;;;;7.40;4.45;;;;;;;;;;10216757;29;20024;-88
2023/09/02 06:33:24;;;;;;;4.60;3.70;;;;;;;;;;10209927;29;20032;-90
2023/09/02 06:38:25;;;;;;;9.15;5.10;;;;;;;;;;10220104;29;20039;-88
2023/09/02 06:43:26;;;;;;;8.20;5.47;;;;;;;;;;10216778;29;20122;-90
2023/09/02 06:48:27;;;;;;;8.50;5.53;;;;;;;;;;10218505;29;20050;-91
2023/09/02 06:53:29;;;;;;;16.10;6.32;;;;;;;;;;10216601;29;20043;-89
2023/09/02 06:58:30;;;;;;;16.55;6.65;;;;;;;;;;10222584;29;20149;-89
2023/09/02 07:03:31;;;;;;;13.98;6.18;;;;;;;;;;10218238;29;20035;-87
2023/09/02 07:08:32;;;;;;;15.65;7.03;;;;;;;;;;10212636;29;20035;-88
2023/09/02 07:13:33;;;;;;;13.70;6.65;;;;;;;;;;10217834;29;20043;-89
2023/09/02 07:18:34;;;;;;;11.00;5.60;;;;;;;;;;10227989;29;20151;-89
2023/09/02 07:23:35;;;;;;;11.38;5.80;;;;;;;;;;10212985;29;20040;-89
2023/09/02 07:28:37;;;;;;;8.10;4.47;;;;;;;;;;10224312;29;20036;-89
2023/09/02 07:33:39;;;;;;;6.10;4.30;;;;;;;;;;10246380;28;20082;-91
2023/09/02 07:38:40;;;;;;;8.02;4.22;;;;;;;;;;10236775;29;20464;-90
2023/09/02 07:43:41;;;;;;;5.80;2.95;;;;;;;;;;10242612;28;20035;-88
2023/09/02 07:48:43;;;;;;;1.67;1.58;;;;;;;;;;10232789;29;20043;-89
2023/09/02 07:53:50;;;;;;;1.55;1.35;;;;;;;;;;10238765;28;20039;-91
2023/09/02 07:58:52;;;;;;;1.45;1.35;;;;;;;;;;10234290;29;20153;-89
2023/09/02 08:03:53;;;;;;;1.63;1.42;;;;;;;;;;10226047;28;20114;-90
2023/09/02 08:08:54;;;;;;;2.20;1.80;;;;;;;;;;10245091;28;20034;-89
2023/09/02 08:13:55;;;;;;;1.60;1.50;;;;;;;;;;10223999;29;20127;-89
2023/09/02 08:18:56;;;;;;;2.22;2.00;;;;;;;;;;10230861;28;20039;-90
2023/09/02 08:23:57;;;;;;;5.03;3.47;;;;;;;;;;10223515;29;20649;-90
2023/09/02 08:28:58;;;;;;;3.38;3.08;;;;;;;;;;10231727;28;20068;-88
2023/09/02 08:33:59;;;;;;;4.00;3.55;;;;;;;;;;10230379;28;20051;-89
2023/09/02 08:39:00;;;;;;;3.88;3.28;;;;;;;;;;10240791;28;20035;-89
2023/09/02 08:44:02;;;;;;;3.00;2.80;;;;;;;;;;10236864;29;20083;-89
2023/09/02 08:49:04;;;;;;;3.53;3.15;;;;;;;;;;10221756;29;20032;-88
2023/09/02 08:54:05;;;;;;;3.70;3.10;;;;;;;;;;10240376;29;20038;-86
2023/09/02 08:59:10;;;;;;;4.55;3.72;;;;;;;;;;10241833;29;20114;-90
2023/09/02 09:04:15;;;;;;;5.63;3.53;;;;;;;;;;10225624;29;20479;-88
2023/09/02 09:09:18;;;;;;;5.20;3.95;;;;;;;;;;10235331;29;20038;-90
2023/09/02 09:14:23;;;;;;;6.53;4.22;;;;;;;;;;10217375;29;20131;-90
2023/09/02 09:19:25;;;;;;;5.97;4.60;;;;;;;;;;10217917;29;20050;-88
2023/09/02 09:24:28;;;;;;;6.45;5.45;;;;;;;;;;10229195;29;20087;-88
2023/09/02 09:29:36;;;;;;;5.60;5.15;;;;;;;;;;10235180;29;20531;-87
2023/09/02 09:34:38;;;;;;;7.45;6.72;;;;;;;;;;10223453;29;20032;-86
2023/09/02 09:39:42;;;;;;;7.07;6.38;;;;;;;;;;10228100;29;20137;-88
2023/09/02 09:44:54;;;;;;;7.18;5.30;;;;;;;;;;10214992;29;20031;-89
2023/09/02 09:50:10;;;;;;;6.18;5.57;;;;;;;;;;10230851;28;20448;-88
2023/09/02 09:55:23;;;;;;;5.28;4.45;;;;;;;;;;10211757;29;20068;-89
2023/09/02 10:00:24;;;;;;;5.65;4.60;;;;;;;;;;10175973;29;20496;-89
2023/09/02 10:05:25;;;;;;;5.43;4.93;;;;;;;;;;10170485;29;20517;-91
2023/09/02 10:10:29;;;;;;;5.55;4.13;;;;;;;;;;10149328;29;20028;-91
2023/09/02 10:15:30;;;;;;;5.32;4.70;;;;;;;;;;10156865;29;20047;-90
2023/09/02 10:20:32;;;;;;;4.55;4.15;;;;;;;;;;10158584;29;20047;-88
2023/09/02 10:25:40;;;;;;;4.05;3.75;;;;;;;;;;10187890;29;20115;-88
2023/09/02 10:30:48;;;;;;;4.50;4.10;;;;;;;;;;10171411;29;20044;-91
2023/09/02 10:35:57;;;;;;;4.00;3.70;;;;;;;;;;10160892;29;20031;-88
2023/09/02 10:41:03;;;;;;;5.18;3.63;;;;;;;;;;10186106;29;20044;-91
2023/09/02 10:46:05;;;;;;;3.25;2.72;;;;;;;;;;10156155;29;20127;-89
2023/09/02 10:51:10;;;;;;;3.25;2.92;;;;;;;;;;10160639;29;20027;-87
2023/09/02 10:56:11;;;;;;;3.00;2.72;;;;;;;;;;10189719;29;20090;-85
2023/09/02 11:01:18;;;;;;;2.95;2.75;;;;;;;;;;10175769;29;20036;-86
2023/09/02 11:06:19;;;;;;;3.90;3.50;;;;;;;;;;10198275;29;20032;-89
2023/09/02 11:11:23;;;;;;;3.83;3.53;;;;;;;;;;10197828;29;20032;-90
2023/09/02 11:22:06;;;;;;;3.05;2.55;;;;;;;;;;10214778;29;20071;-90
2023/09/02 11:27:23;;;;;;;3.92;2.88;;;;;;;;;;10194723;29;20038;-89
2023/09/02 11:33:00;;;;;;;2.88;2.67;;;;;;;;;;10227618;29;20122;-91
2023/09/02 11:38:19;;;;;;;3.15;2.85;;;;;;;;;;10186544;29;20547;-91
2023/09/02 11:43:20;;;;;;;4.40;2.80;;;;;;;;;;10173379;29;20040;-88
2023/09/02 11:48:24;;;;;;;3.10;2.20;;;;;;;;;;10179270;29;20028;-91
2023/09/02 11:53:26;;;;;;;2.17;1.98;;;;;;;;;;10181494;29;20032;-90
2023/09/02 11:58:27;;;;;;;2.17;1.98;;;;;;;;;;10219616;29;20054;-89
2023/09/02 12:03:28;;;;;;;1.77;1.67;;;;;;;;;;10235150;29;20031;-89
2023/09/02 12:08:31;;;;;;;2.40;2.20;;;;;;;;;;10238553;29;20118;-88
2023/09/02 12:13:32;;;;;;;2.42;2.22;;;;;;;;;;10234839;28;20034;-88
2023/09/02 12:18:33;;;;;;;2.30;1.50;;;;;;;;;;10240668;29;20047;-91
2023/09/02 12:23:35;;;;;;;4.22;2.17;;;;;;;;;;10228725;29;20054;-89
2023/09/02 12:28:39;;;;;;;2.28;2.08;;;;;;;;;;10233820;28;20035;-91
2023/09/02 12:33:40;;;;;;;3.03;2.30;;;;;;;;;;10226849;29;20031;-92
2023/09/02 12:38:52;;;;;;;2.90;2.60;;;;;;;;;;10221314;29;20039;-88
2023/09/02 12:43:56;;;;;;;2.13;2.00;;;;;;;;;;10225386;29;20035;-91
2023/09/02 12:48:59;;;;;;;2.13;1.90;;;;;;;;;;10225380;29;20031;-89
2023/09/02 12:54:07;;;;;;;2.67;1.92;;;;;;;;;;10242572;28;20087;-89
2023/09/02 12:59:08;;;;;;;2.55;2.35;;;;;;;;;;10171560;29;20043;-90
2023/09/02 13:04:09;;;;;;;2.30;2.10;;;;;;;;;;10176470;29;20064;-90
2023/09/02 13:09:10;;;;;;;2.92;2.63;;;;;;;;;;10175542;29;20031;-90
2023/09/02 13:14:14;;;;;;;3.53;2.42;;;;;;;;;;10184105;29;20118;-90
2023/09/02 13:24:57;;;;;;;2.88;2.58;;;;;;;;;;10175336;29;20478;-92
2023/09/02 13:30:14;;;;;;;2.50;2.30;;;;;;;;;;10159042;29;20120;-90
2023/09/02 13:41:10;;;;;;;3.00;2.70;;;;;;;;;;10186574;29;20051;-89
2023/09/02 13:46:12;;;;;;;3.08;2.78;;;;;;;;;;10173771;29;20091;-89
2023/09/02 13:51:21;;;;;;;2.78;2.58;;;;;;;;;;10172758;29;20114;-87
2023/09/02 13:56:42;;;;;;;3.65;2.60;;;;;;;;;;10193865;29;20060;-92
2023/09/02 14:01:44;;;;;;;2.65;2.45;;;;;;;;;;10178479;29;20039;-90
2023/09/02 14:12:29;;;;;;;2.83;2.58;;;;;;;;;;10190371;29;20043;-90
2023/09/02 14:17:30;;;;;;;3.45;3.15;;;;;;;;;;10172570;29;20471;-90
2023/09/02 14:22:31;;;;;;;3.13;2.83;;;;;;;;;;10187192;29;20038;-89
2023/09/02 14:27:36;;;;;;;4.13;3.58;;;;;;;;;;10185947;29;20035;-88
2023/09/02 14:32:39;;;;;;;3.20;2.73;;;;;;;;;;10162364;29;20024;-87
2023/09/02 14:37:40;;;;;;;4.00;2.70;;;;;;;;;;10163365;29;20044;-88
2023/09/02 14:42:42;;;;;;;5.13;2.75;;;;;;;;;;10170572;29;20027;-92
2023/09/02 14:47:48;;;;;;;2.25;2.08;;;;;;;;;;10188085;29;20890;-89
2023/09/02 14:52:50;;;;;;;2.40;2.20;;;;;;;;;;10170001;29;20028;-89
2023/09/02 14:57:54;;;;;;;2.90;2.50;;;;;;;;;;10184791;29;20742;-89
2023/09/02 15:02:55;;;;;;;3.20;2.53;;;;;;;;;;10222072;29;20038;-89
2023/09/02 15:07:57;;;;;;;3.45;2.65;;;;;;;;;;10225916;29;20043;-90
2023/09/02 15:13:02;;;;;;;2.03;1.90;;;;;;;;;;10234222;28;20043;-89
2023/09/02 15:18:04;;;;;;;3.25;2.95;;;;;;;;;;10243015;28;20054;-89
2023/09/02 15:23:05;;;;;;;2.47;2.28;;;;;;;;;;10223272;29;20555;-91
2023/09/02 15:28:09;;;;;;;4.43;4.03;;;;;;;;;;10243552;28;20460;-89
2023/09/02 15:33:11;;;;;;;3.50;3.20;;;;;;;;;;10224870;29;20027;-90
2023/09/02 15:38:18;;;;;;;2.53;2.33;;;;;;;;;;10226212;28;20043;-90
2023/09/02 15:43:20;;;;;;;3.55;3.25;;;;;;;;;;10231998;28;20451;-89
2023/09/02 15:48:33;;;;;;;4.43;3.28;;;;;;;;;;10221101;28;20042;-89
2023/09/02 15:53:35;;;;;;;2.67;2.40;;;;;;;;;;10225305;29;20042;-89
2023/09/02 15:58:36;;;;;;;3.30;3.00;;;;;;;;;;10235972;28;20047;-91
2023/09/02 16:03:37;;;;;;;3.97;3.05;;;;;;;;;;10235140;29;20073;-89
2023/09/02 16:08:38;;;;;;;2.92;2.50;;;;;;;;;;10221943;28;20094;-88
2023/09/02 16:13:39;;;;;;;3.67;3.25;;;;;;;;;;10233080;29;20031;-88
2023/09/02 16:18:40;;;;;;;3.85;3.33;;;;;;;;;;10232951;28;20047;-91
2023/09/02 16:23:41;;;;;;;3.58;3.20;;;;;;;;;;10231967;29;20142;-88
2023/09/02 16:28:43;;;;;;;3.42;3.13;;;;;;;;;;10224198;28;20028;-88
2023/09/02 16:33:44;;;;;;;4.43;3.08;;;;;;;;;;10225922;29;20567;-88
2023/09/02 16:38:45;;;;;;;3.95;3.63;;;;;;;;;;10233000;29;20451;-88
2023/09/02 16:43:46;;;;;;;3.85;3.55;;;;;;;;;;10236257;28;20027;-89
2023/09/02 16:48:47;;;;;;;4.13;3.63;;;;;;;;;;10227058;28;20126;-89
2023/09/02 16:53:48;;;;;;;4.55;4.07;;;;;;;;;;10229012;29;20042;-90
2023/09/02 16:58:50;;;;;;;5.63;3.72;;;;;;;;;;10234347;28;20051;-91
2023/09/02 17:03:52;;;;;;;6.40;3.88;;;;;;;;;;10229859;29;20043;-90
2023/09/02 17:08:53;;;;;;;4.45;4.05;;;;;;;;;;10227911;29;20034;-89
2023/09/02 17:13:57;;;;;;;8.35;4.43;;;;;;;;;;10222794;29;20074;-92
2023/09/02 17:18:59;;;;;;;5.07;4.10;;;;;;;;;;10237591;29;20101;-90
2023/09/02 17:24:00;;;;;;;4.90;4.25;;;;;;;;;;10230075;29;20036;-89
2023/09/02 17:29:10;;;;;;;6.07;4.78;;;;;;;;;;10225643;29;20032;-91
2023/09/02 17:34:11;;;;;;;6.47;4.70;;;;;;;;;;10234920;28;20034;-92
2023/09/02 17:39:12;;;;;;;6.80;5.38;;;;;;;;;;10224471;29;20043;-90
2023/09/02 17:44:13;;;;;;;7.93;6.47;;;;;;;;;;10226178;29;20066;-88
2023/09/02 17:49:15;;;;;;;6.95;6.22;;;;;;;;;;10220315;29;20034;-90
2023/09/02 17:54:16;;;;;;;5.85;4.90;;;;;;;;;;10213634;29;20114;-90
2023/09/02 17:59:18;;;;;;;6.03;4.80;;;;;;;;;;10213605;29;20111;-88
2023/09/02 18:04:19;;;;;;;10.50;6.30;;;;;;;;;;10225102;29;20183;-88
2023/09/02 18:09:20;;;;;;;7.57;5.65;;;;;;;;;;10224659;28;20043;-89
2023/09/02 18:14:21;;;;;;;6.20;5.10;;;;;;;;;;10219989;29;20039;-89
2023/09/02 18:19:22;;;;;;;6.63;5.10;;;;;;;;;;10236646;28;20934;-90
2023/09/02 18:24:23;;;;;;;8.18;5.80;;;;;;;;;;10230452;29;20034;-90
2023/09/02 18:29:24;;;;;;;7.82;5.53;;;;;;;;;;10217779;29;20031;-90
2023/09/02 18:34:26;;;;;;;6.50;5.80;;;;;;;;;;10226401;29;20074;-90
2023/09/02 18:39:27;;;;;;;6.53;5.70;;;;;;;;;;10215745;29;20046;-90
2023/09/02 18:44:29;;;;;;;6.57;5.22;;;;;;;;;;10222486;29;20777;-91
2023/09/02 18:49:30;;;;;;;6.20;5.05;;;;;;;;;;10224359;29;20035;-91
2023/09/02 18:54:31;;;;;;;6.47;5.43;;;;;;;;;;10216961;29;20126;-91
2023/09/02 18:59:36;;;;;;;6.05;4.65;;;;;;;;;;10172322;29;20043;-93
2023/09/02 19:04:37;;;;;;;7.15;5.32;;;;;;;;;;10179911;29;20039;-90
2023/09/02 19:09:39;;;;;;;5.00;3.97;;;;;;;;;;10166258;29;20035;-92
2023/09/02 19:14:40;;;;;;;5.13;3.70;;;;;;;;;;10189527;29;20051;-88
2023/09/02 19:19:43;;;;;;;5.78;4.25;;;;;;;;;;10179108;29;20571;-89
2023/09/02 19:24:44;;;;;;;4.72;3.42;;;;;;;;;;10171545;29;20855;-89
2023/09/02 19:29:45;;;;;;;3.70;3.40;;;;;;;;;;10161171;29;20028;-87
2023/09/02 19:35:08;;;;;;;5.47;3.60;;;;;;;;;;10180388;29;20028;-89
2023/09/02 19:40:12;;;;;;;5.25;3.92;;;;;;;;;;10179954;29;20044;-89
2023/09/02 19:45:13;;;;;;;4.97;3.22;;;;;;;;;;10180359;29;20136;-88
2023/09/02 19:50:15;;;;;;;4.68;3.90;;;;;;;;;;10190169;29;20484;-88
2023/09/02 19:55:16;;;;;;;4.65;3.88;;;;;;;;;;10177632;29;20063;-89
2023/09/02 20:00:17;;;;;;;4.85;3.75;;;;;;;;;;10161201;29;20676;-88
2023/09/02 20:05:18;;;;;;;3.85;3.55;;;;;;;;;;10163106;29;20036;-89
2023/09/02 20:10:19;;;;;;;4.95;3.55;;;;;;;;;;10171648;29;20590;-88
2023/09/02 20:15:20;;;;;;;5.63;3.88;;;;;;;;;;10194636;29;20031;-91
2023/09/02 20:20:22;;;;;;;6.20;4.10;;;;;;;;;;10188862;29;20390;-89
2023/09/02 20:25:23;;;;;;;4.35;3.75;;;;;;;;;;10165744;29;20063;-91
2023/09/02 20:30:24;;;;;;;6.53;4.70;;;;;;;;;;10171696;29;20174;-89
2023/09/02 20:35:25;;;;;;;5.00;4.45;;;;;;;;;;10170799;29;20039;-90
2023/09/02 20:40:26;;;;;;;6.55;3.95;;;;;;;;;;10196169;29;20675;-90
2023/09/02 20:45:27;;;;;;;4.80;4.13;;;;;;;;;;10179987;29;20071;-88
2023/09/02 20:50:31;;;;;;;5.38;4.38;;;;;;;;;;10173177;29;20510;-90
2023/09/02 20:55:32;;;;;;;7.97;4.53;;;;;;;;;;10186192;28;20090;-90
2023/09/02 21:00:38;;;;;;;6.82;5.20;;;;;;;;;;10175407;29;20490;-89
2023/09/02 21:05:39;;;;;;;7.93;5.78;;;;;;;;;;10177026;29;20134;-89
2023/09/02 21:10:40;;;;;;;5.97;5.35;;;;;;;;;;10177392;29;20036;-90
2023/09/02 21:15:42;;;;;;;6.88;4.72;;;;;;;;;;10178340;29;20126;-90
2023/09/02 21:20:43;;;;;;;7.80;5.53;;;;;;;;;;10178933;29;20580;-90
2023/09/02 21:25:44;;;;;;;6.45;5.15;;;;;;;;;;10198361;29;20074;-90
2023/09/02 21:30:45;;;;;;;9.27;5.75;;;;;;;;;;10182088;29;20122;-93
2023/09/02 21:35:46;;;;;;;9.13;7.03;;;;;;;;;;10179822;29;20118;-91
2023/09/02 21:40:47;;;;;;;8.93;6.65;;;;;;;;;;10158618;29;20068;-90
2023/09/02 21:45:48;;;;;;;7.18;5.80;;;;;;;;;;10166133;29;20039;-90
2023/09/02 21:50:49;;;;;;;9.15;6.20;;;;;;;;;;10180726;29;20051;-90
2023/09/02 21:55:50;;;;;;;10.32;7.15;;;;;;;;;;10171680;29;20067;-90
2023/09/02 22:01:00;;;;;;;12.85;7.65;;;;;;;;;;10197546;29;20451;-89
2023/09/02 22:06:05;;;;;;;10.80;7.40;;;;;;;;;;10178191;29;20036;-90
2023/09/02 22:11:07;;;;;;;9.30;7.20;;;;;;;;;;10166802;29;20035;-90
2023/09/02 22:16:08;;;;;;;8.73;7.10;;;;;;;;;;10194637;29;20027;-90
2023/09/02 22:21:09;;;;;;;13.18;7.45;;;;;;;;;;10172706;29;20167;-90
2023/09/02 22:26:10;;;;;;;14.95;11.65;;;;;;;;;;10167411;29;20074;-90
2023/09/02 22:31:11;;;;;;;14.63;10.70;;;;;;;;;;10169140;29;20024;-89
2023/09/02 22:36:14;;;;;;;14.88;11.00;;;;;;;;;;10174986;29;20488;-89
2023/09/02 22:41:15;;;;;;;16.40;10.60;;;;;;;;;;10169698;29;20126;-90
2023/09/02 22:46:16;;;;;;;17.23;13.13;;;;;;;;;;10170444;29;20497;-89
2023/09/02 22:51:17;;;;;;;16.67;10.75;;;;;;;;;;10163543;29;20099;-90
2023/09/02 22:56:18;;;;;;;16.23;12.18;;;;;;;;;;10157523;29;20068;-89
2023/09/02 23:01:20;;;;;;;19.42;14.25;;;;;;;;;;10159068;29;20817;-90
2023/09/02 23:06:21;;;;;;;19.95;14.55;;;;;;;;;;10156428;29;20452;-89
2023/09/02 23:11:22;;;;;;;25.00;16.88;;;;;;;;;;10168840;29;20028;-90
2023/09/02 23:16:23;;;;;;;22.80;16.75;;;;;;;;;;10162726;29;20031;-89
2023/09/02 23:21:25;;;;;;;32.75;21.35;;;;;;;;;;10157752;29;20135;-90
2023/09/02 23:26:28;;;;;;;32.03;22.15;;;;;;;;;;10170565;29;20579;-89
2023/09/02 23:31:29;;;;;;;37.97;25.58;;;;;;;;;;10181308;29;20082;-88
2023/09/02 23:36:30;;;;;;;34.42;24.33;;;;;;;;;;10173039;29;20044;-88
2023/09/02 23:41:31;;;;;;;38.35;25.42;;;;;;;;;;10165270;29;20071;-91
2023/09/02 23:46:32;;;;;;;33.25;23.35;;;;;;;;;;10155842;29;20106;-90
2023/09/02 23:51:34;;;;;;;33.05;23.98;;;;;;;;;;10165957;29;20472;-90
2023/09/02 23:56:35;;;;;;;32.97;23.63;;;;;;;;;;10172636;29;20068;-89
